Time;durP1;ratioP1;P1;durP2;ratioP2;P2;SDS_P1;SDS_P2;PMS_P1;PMS_P2;Temp;Humidity;BMP_temperature;BMP_pressure;BME280_temperature;BME280_humidity;BME280_pressure;Samples;Min_cycle;Max_cycle;Signal;HPM_P1;HPM_P2
2023/09/10 00:01:04;;;;;;;15.02;9.65;;;18.80;99.90;;;;;;5017367;28;20033;-54
2023/09/10 00:03:32;;;;;;;17.27;10.00;;;18.70;99.90;;;;;;5016735;28;20061;-54
2023/09/10 00:05:59;;;;;;;13.95;9.13;;;18.70;99.90;;;;;;5016602;28;20070;-53
2023/09/10 00:08:25;;;;;;;15.85;8.90;;;18.70;99.90;;;;;;5016461;28;20092;-55
2023/09/10 00:10:51;;;;;;;17.20;9.32;;;18.70;99.90;;;;;;5017486;28;20433;-54
2023/09/10 00:13:17;;;;;;;14.38;9.57;;;18.70;99.90;;;;;;5016895;28;20026;-50
2023/09/10 00:15:43;;;;;;;19.30;10.25;;;18.70;99.90;;;;;;5016840;28;20026;-50
2023/09/10 00:18:09;;;;;;;17.95;9.93;;;18.60;99.90;;;;;;5001306;28;20069;-52
2023/09/10 00:20:34;;;;;;;14.13;9.15;;;18.60;99.90;;;;;;5019800;28;20041;-53
2023/09/10 00:23:00;;;;;;;13.63;9.10;;;18.60;99.90;;;;;;5021000;28;20038;-55
2023/09/10 00:25:29;;;;;;;15.93;10.05;;;18.60;99.90;;;;;;5019722;28;20080;-54
2023/09/10 00:27:57;;;;;;;15.10;10.30;;;18.60;99.90;;;;;;5020243;28;20481;-51
2023/09/10 00:30:23;;;;;;;16.87;9.57;;;18.60;99.90;;;;;;5018772;28;20033;-51
2023/09/10 00:32:48;;;;;;;14.80;9.63;;;18.60;99.90;;;;;;5002083;28;20026;-52
2023/09/10 00:35:14;;;;;;;17.05;10.68;;;18.60;99.90;;;;;;5001467;28;20056;-54
2023/09/10 00:37:40;;;;;;;16.20;10.73;;;18.60;99.90;;;;;;5019584;28;20030;-51
2023/09/10 00:40:07;;;;;;;18.85;10.60;;;18.60;99.90;;;;;;5019134;28;20119;-53
2023/09/10 00:42:33;;;;;;;17.17;10.60;;;18.60;99.90;;;;;;5018133;28;20057;-54
2023/09/10 00:44:59;;;;;;;15.55;10.63;;;18.60;99.90;;;;;;5018216;28;20041;-55
2023/09/10 00:47:25;;;;;;;17.20;9.88;;;18.60;99.90;;;;;;5018705;28;20021;-51
2023/09/10 00:49:51;;;;;;;17.48;10.65;;;18.60;99.90;;;;;;5001216;28;20033;-55
2023/09/10 00:52:17;;;;;;;16.50;10.07;;;18.60;99.90;;;;;;5018420;28;20137;-54
2023/09/10 00:54:44;;;;;;;16.02;10.70;;;18.60;99.90;;;;;;5017480;28;20057;-53
2023/09/10 00:57:10;;;;;;;15.40;9.70;;;18.60;99.90;;;;;;5018811;28;20029;-54
2023/09/10 00:59:36;;;;;;;13.98;9.00;;;18.60;99.90;;;;;;5001179;28;20030;-54
2023/09/10 01:02:02;;;;;;;14.05;9.48;;;18.60;99.90;;;;;;4985465;28;20033;-49
2023/09/10 01:04:28;;;;;;;13.95;9.52;;;18.60;99.90;;;;;;5001263;28;20372;-51
2023/09/10 01:06:54;;;;;;;14.48;9.25;;;18.50;99.90;;;;;;5018806;28;20034;-53
2023/09/10 01:09:20;;;;;;;16.50;9.93;;;18.50;99.90;;;;;;5001228;28;20113;-52
2023/09/10 01:12:10;;;;;;;14.93;9.48;;;18.40;99.90;;;;;;5018786;28;20030;-52
2023/09/10 01:14:42;;;;;;;14.25;9.52;;;18.40;99.90;;;;;;5000592;28;20037;-54
2023/09/10 01:17:22;;;;;;;14.68;9.70;;;18.30;99.90;;;;;;4999898;28;20026;-55
2023/09/10 01:19:51;;;;;;;14.50;8.65;;;18.20;99.90;;;;;;4999882;28;20030;-52
2023/09/10 01:22:51;;;;;;;14.55;8.98;;;18.20;99.90;;;;;;4999415;28;20037;-52
2023/09/10 01:25:18;;;;;;;16.40;9.48;;;18.20;99.90;;;;;;4966747;28;20494;-53
2023/09/10 01:27:45;;;;;;;15.57;8.98;;;18.10;99.90;;;;;;5018478;28;20029;-54
2023/09/10 01:30:11;;;;;;;16.10;9.63;;;18.10;99.90;;;;;;5000149;28;20037;-54
2023/09/10 01:33:02;;;;;;;14.48;8.75;;;18.10;99.90;;;;;;5018689;28;20394;-54
2023/09/10 01:35:46;;;;;;;13.88;9.02;;;18.10;99.90;;;;;;5019004;28;20030;-54
2023/09/10 01:38:21;;;;;;;18.80;10.38;;;18.10;99.90;;;;;;5000959;28;20029;-52
2023/09/10 01:41:03;;;;;;;15.05;9.32;;;18.10;99.90;;;;;;5018855;28;20029;-55
2023/09/10 01:43:31;;;;;;;14.18;9.02;;;18.00;99.90;;;;;;5001446;28;20440;-54
2023/09/10 01:45:57;;;;;;;15.57;8.70;;;18.00;99.90;;;;;;5001390;28;20062;-55
2023/09/10 01:48:26;;;;;;;14.95;9.23;;;18.00;99.90;;;;;;5001196;28;20033;-53
2023/09/10 01:50:53;;;;;;;15.90;9.63;;;17.90;99.90;;;;;;5018905;28;20049;-52
2023/09/10 01:53:18;;;;;;;15.48;9.40;;;17.90;99.90;;;;;;4984446;28;20157;-54
2023/09/10 01:55:45;;;;;;;13.68;8.80;;;17.90;99.90;;;;;;5000318;28;20034;-53
2023/09/10 01:58:14;;;;;;;16.85;9.45;;;17.90;99.90;;;;;;5000767;28;20034;-54
2023/09/10 02:00:40;;;;;;;;;;;17.90;99.90;;;;;;5001024;28;20036;-54
2023/09/10 02:03:07;;;;;;;15.98;9.57;;;17.90;99.90;;;;;;5017004;28;19932;-52
2023/09/10 02:05:32;;;;;;;16.67;9.20;;;17.90;99.90;;;;;;5019044;28;20061;-53
2023/09/10 02:07:58;;;;;;;16.33;9.25;;;17.90;99.90;;;;;;5000585;28;20038;-55
2023/09/10 02:10:24;;;;;;;15.75;9.50;;;17.90;99.90;;;;;;5000046;28;20034;-54
2023/09/10 02:12:50;;;;;;;13.80;9.48;;;17.80;99.90;;;;;;5000805;28;20062;-55
2023/09/10 02:15:17;;;;;;;14.45;9.38;;;17.80;99.90;;;;;;5017630;28;20490;-55
2023/09/10 02:17:43;;;;;;;15.25;9.77;;;17.80;99.90;;;;;;4999814;28;20034;-55
2023/09/10 02:20:09;;;;;;;15.52;9.77;;;17.70;99.90;;;;;;4999570;28;20092;-54
2023/09/10 02:22:39;;;;;;;14.52;9.52;;;17.70;99.90;;;;;;5019468;23;20061;-56
2023/09/10 02:25:05;;;;;;;14.70;9.18;;;17.70;99.90;;;;;;5032032;28;20107;-52
2023/09/10 02:27:31;;;;;;;14.98;10.00;;;17.70;99.90;;;;;;5014080;28;20048;-54
2023/09/10 02:29:57;;;;;;;13.52;9.10;;;17.70;99.90;;;;;;5031877;28;20025;-52
2023/09/10 02:32:23;;;;;;;13.73;9.32;;;17.60;99.90;;;;;;5031963;28;20222;-53
2023/09/10 02:34:51;;;;;;;14.43;9.00;;;17.70;99.90;;;;;;5014092;28;20437;-52
2023/09/10 02:37:17;;;;;;;12.82;9.00;;;17.70;99.90;;;;;;5031848;28;20136;-54
2023/09/10 02:39:43;;;;;;;14.40;9.13;;;17.60;99.90;;;;;;5013811;28;20117;-56
2023/09/10 02:42:09;;;;;;;14.77;9.52;;;17.60;99.90;;;;;;5013190;28;20061;-55
2023/09/10 02:44:35;;;;;;;17.33;10.05;;;17.60;99.90;;;;;;5014013;28;20056;-56
2023/09/10 02:47:01;;;;;;;15.15;10.35;;;17.60;99.90;;;;;;5013837;28;20488;-53
2023/09/10 02:49:27;;;;;;;15.48;10.20;;;17.50;99.90;;;;;;5031500;28;20032;-54
2023/09/10 02:51:53;;;;;;;15.00;9.70;;;17.50;99.90;;;;;;5013929;28;20246;-51
2023/09/10 02:54:19;;;;;;;16.15;9.85;;;17.50;99.90;;;;;;5031790;28;20032;-53
2023/09/10 02:56:45;;;;;;;13.90;9.40;;;17.50;99.90;;;;;;5014010;28;20033;-56
2023/09/10 02:59:24;;;;;;;16.13;9.73;;;17.50;99.90;;;;;;5031369;28;20458;-54
2023/09/10 03:01:50;;;;;;;16.30;9.93;;;17.50;99.90;;;;;;5014081;28;20466;-54
2023/09/10 03:04:16;;;;;;;16.90;9.68;;;17.40;99.90;;;;;;5013910;28;20044;-55
2023/09/10 03:06:43;;;;;;;16.52;9.95;;;17.40;99.90;;;;;;5013896;28;20128;-55
2023/09/10 03:09:09;;;;;;;17.23;10.38;;;17.40;99.90;;;;;;5013359;28;20524;-54
2023/09/10 03:11:37;;;;;;;13.88;9.73;;;17.40;99.90;;;;;;5013743;28;20025;-55
2023/09/10 03:14:03;;;;;;;16.75;10.05;;;17.40;99.90;;;;;;5013698;28;20033;-52
2023/09/10 03:16:29;;;;;;;16.10;9.82;;;17.40;99.90;;;;;;5013715;28;20057;-53
2023/09/10 03:18:55;;;;;;;15.07;10.00;;;17.40;99.90;;;;;;5013137;28;20159;-52
2023/09/10 03:21:21;;;;;;;15.98;10.13;;;17.40;99.90;;;;;;5013707;28;20037;-55
2023/09/10 03:23:47;;;;;;;16.92;9.98;;;17.40;99.90;;;;;;5013438;28;20029;-53
2023/09/10 03:26:13;;;;;;;15.15;10.23;;;17.40;99.90;;;;;;5013601;28;20044;-55
2023/09/10 03:28:40;;;;;;;18.80;11.00;;;17.40;99.90;;;;;;5012827;28;20029;-55
2023/09/10 03:31:06;;;;;;;16.92;10.80;;;17.40;99.90;;;;;;5031242;28;20025;-54
2023/09/10 03:33:32;;;;;;;18.35;10.40;;;17.40;99.90;;;;;;5013329;28;20017;-56
2023/09/10 03:35:57;;;;;;;18.10;10.63;;;17.50;99.90;;;;;;5013099;28;20030;-56
2023/09/10 03:38:24;;;;;;;18.95;11.10;;;17.50;99.90;;;;;;5012666;28;20037;-52
2023/09/10 03:40:49;;;;;;;16.95;10.95;;;17.50;99.90;;;;;;5013207;28;20026;-56
2023/09/10 03:43:16;;;;;;;16.98;10.55;;;17.50;99.90;;;;;;5030952;28;20032;-56
2023/09/10 03:45:42;;;;;;;16.65;11.00;;;17.50;99.90;;;;;;5013165;28;20083;-54
2023/09/10 03:48:08;;;;;;;16.92;10.90;;;17.50;99.90;;;;;;5013068;28;20387;-56
2023/09/10 03:50:35;;;;;;;18.65;11.35;;;17.50;99.90;;;;;;4997141;28;20405;-56
2023/09/10 03:53:01;;;;;;;16.42;10.82;;;17.50;99.90;;;;;;5014892;28;20033;-53
2023/09/10 03:55:26;;;;;;;17.27;10.48;;;17.50;99.90;;;;;;5017176;28;20037;-56
2023/09/10 03:57:53;;;;;;;16.08;9.98;;;17.50;99.90;;;;;;5016714;28;20037;-54
2023/09/10 04:00:19;;;;;;;15.10;10.05;;;17.50;99.90;;;;;;5016875;28;20040;-55
2023/09/10 04:02:45;;;;;;;17.85;10.80;;;17.50;99.90;;;;;;5017054;28;20084;-56
2023/09/10 04:05:12;;;;;;;16.30;10.20;;;17.50;99.90;;;;;;5016747;28;20639;-52
2023/09/10 04:07:38;;;;;;;15.13;10.13;;;17.40;99.90;;;;;;5016214;28;20060;-55
2023/09/10 04:10:06;;;;;;;14.57;9.50;;;17.40;99.90;;;;;;5016507;28;20029;-56
2023/09/10 04:12:31;;;;;;;16.35;11.10;;;17.40;99.90;;;;;;5034696;28;20386;-55
2023/09/10 04:14:57;;;;;;;15.32;10.10;;;17.40;99.90;;;;;;5016563;28;20082;-57
2023/09/10 04:17:23;;;;;;;17.95;10.90;;;17.40;99.90;;;;;;5016371;28;20025;-55
2023/09/10 04:19:48;;;;;;;17.77;10.70;;;17.40;99.90;;;;;;5016138;28;20355;-53
2023/09/10 04:22:14;;;;;;;16.67;10.27;;;17.30;99.90;;;;;;5015955;28;20026;-55
2023/09/10 04:24:41;;;;;;;16.30;10.60;;;17.30;99.90;;;;;;5016296;28;20040;-52
2023/09/10 04:27:06;;;;;;;16.77;10.57;;;17.30;99.90;;;;;;5016036;28;20032;-53
2023/09/10 04:29:32;;;;;;;16.65;10.30;;;17.30;99.90;;;;;;5015407;28;20100;-55
2023/09/10 04:31:58;;;;;;;16.90;10.20;;;17.30;99.90;;;;;;5015904;28;20110;-53
2023/09/10 04:34:24;;;;;;;16.20;10.52;;;17.30;99.90;;;;;;5015848;28;20040;-55
2023/09/10 04:36:49;;;;;;;18.65;10.85;;;17.20;99.90;;;;;;5033479;28;20045;-55
2023/09/10 04:39:16;;;;;;;16.25;10.82;;;17.20;99.90;;;;;;5015211;28;20040;-54
2023/09/10 04:41:42;;;;;;;15.35;10.30;;;17.20;99.90;;;;;;5015693;28;20026;-55
2023/09/10 04:44:08;;;;;;;19.10;10.52;;;17.20;99.90;;;;;;5016346;28;20501;-54
2023/09/10 04:46:34;;;;;;;15.32;10.43;;;17.20;99.90;;;;;;5016239;28;20029;-56
2023/09/10 04:49:00;;;;;;;17.20;10.05;;;17.20;99.90;;;;;;5015661;28;20025;-56
2023/09/10 04:51:26;;;;;;;17.10;10.52;;;17.20;99.90;;;;;;5016073;28;20033;-54
2023/09/10 04:53:53;;;;;;;16.63;10.82;;;17.20;99.90;;;;;;4999694;28;20389;-54
2023/09/10 04:56:19;;;;;;;18.15;10.80;;;17.10;99.90;;;;;;5033977;28;20029;-51
2023/09/10 04:58:45;;;;;;;18.00;10.73;;;17.20;99.90;;;;;;5015378;28;20102;-55
2023/09/10 05:01:11;;;;;;;15.45;10.00;;;17.10;99.90;;;;;;5033770;28;20033;-55
2023/09/10 05:03:36;;;;;;;17.23;10.75;;;17.20;99.90;;;;;;5015359;28;20033;-52
2023/09/10 05:06:05;;;;;;;16.63;11.02;;;17.10;99.90;;;;;;5033110;28;20021;-53
2023/09/10 05:08:31;;;;;;;16.95;10.13;;;17.10;99.90;;;;;;5015293;28;20021;-52
2023/09/10 05:10:56;;;;;;;15.05;9.95;;;17.10;99.90;;;;;;5033548;28;20037;-53
2023/09/10 05:13:23;;;;;;;19.73;10.57;;;17.20;99.90;;;;;;5015640;28;20125;-53
2023/09/10 05:15:49;;;;;;;16.20;9.82;;;17.20;99.90;;;;;;5015629;28;20033;-54
2023/09/10 05:18:15;;;;;;;16.02;9.77;;;17.20;99.90;;;;;;5014961;28;20037;-55
2023/09/10 05:20:41;;;;;;;16.08;10.30;;;17.20;99.90;;;;;;5014629;28;20128;-56
2023/09/10 05:23:07;;;;;;;17.13;9.98;;;17.20;99.90;;;;;;5014823;28;20042;-55
2023/09/10 05:25:36;;;;;;;17.27;9.52;;;17.20;99.90;;;;;;5032405;28;20076;-55
2023/09/10 05:28:03;;;;;;;14.70;9.60;;;17.20;99.90;;;;;;5014289;28;20075;-53
2023/09/10 05:30:30;;;;;;;15.57;10.80;;;17.20;99.90;;;;;;5014434;28;20032;-53
2023/09/10 05:32:57;;;;;;;15.57;10.10;;;17.20;99.90;;;;;;5014257;28;20025;-56
2023/09/10 05:35:23;;;;;;;13.57;9.35;;;17.30;99.90;;;;;;5014403;28;20215;-57
2023/09/10 05:37:48;;;;;;;20.75;11.07;;;17.30;99.90;;;;;;4998153;28;20128;-56
2023/09/10 05:40:14;;;;;;;18.50;10.98;;;17.40;99.90;;;;;;5032143;28;20087;-55
2023/09/10 05:42:40;;;;;;;16.60;10.15;;;17.40;99.90;;;;;;5014552;28;20052;-54
2023/09/10 05:45:06;;;;;;;16.23;10.10;;;17.50;99.90;;;;;;5032135;28;20029;-55
2023/09/10 05:47:32;;;;;;;13.77;9.60;;;17.50;99.90;;;;;;5014209;28;20030;-52
2023/09/10 05:50:00;;;;;;;14.13;9.55;;;17.50;99.90;;;;;;5013804;28;20037;-53
2023/09/10 05:52:25;;;;;;;13.80;9.65;;;17.60;99.90;;;;;;5014376;28;20056;-54
2023/09/10 05:54:51;;;;;;;17.02;10.75;;;17.60;99.90;;;;;;5014314;28;20052;-55
2023/09/10 05:57:17;;;;;;;15.77;9.77;;;17.70;99.90;;;;;;5014229;28;20033;-55
2023/09/10 05:59:43;;;;;;;14.35;9.52;;;17.80;99.90;;;;;;5014016;28;20156;-54
2023/09/10 06:02:09;;;;;;;16.20;10.07;;;17.80;99.90;;;;;;5032020;28;20047;-54
2023/09/10 06:04:34;;;;;;;15.30;9.85;;;17.90;99.90;;;;;;5014017;28;20489;-55
2023/09/10 06:07:04;;;;;;;15.80;9.45;;;17.90;99.90;;;;;;5013809;28;20112;-53
2023/09/10 06:09:31;;;;;;;13.82;9.52;;;18.00;99.90;;;;;;5013919;28;20029;-55
2023/09/10 06:11:59;;;;;;;15.18;9.38;;;18.00;99.90;;;;;;5031993;28;20025;-54
2023/09/10 06:14:24;;;;;;;17.10;9.75;;;18.10;99.90;;;;;;5031760;28;20026;-52
2023/09/10 06:16:51;;;;;;;13.60;9.48;;;18.20;99.90;;;;;;5013707;28;20029;-54
2023/09/10 06:19:16;;;;;;;13.68;9.52;;;18.20;99.90;;;;;;5013481;28;20084;-54
2023/09/10 06:21:42;;;;;;;15.50;10.05;;;18.30;99.90;;;;;;5013798;28;20092;-56
2023/09/10 06:24:08;;;;;;;16.35;9.85;;;18.40;99.90;;;;;;5031568;28;20557;-54
2023/09/10 06:26:34;;;;;;;14.50;8.95;;;18.50;99.90;;;;;;5031858;28;20033;-52
2023/09/10 06:29:00;;;;;;;14.43;9.63;;;18.60;99.90;;;;;;5013328;28;20029;-55
2023/09/10 06:31:26;;;;;;;13.00;8.98;;;18.70;99.90;;;;;;5013782;28;20053;-53
2023/09/10 06:33:54;;;;;;;13.15;8.52;;;18.80;99.90;;;;;;5013663;28;20500;-56
2023/09/10 06:36:20;;;;;;;14.27;9.95;;;18.90;99.90;;;;;;5014034;28;20041;-53
2023/09/10 06:38:47;;;;;;;13.13;9.10;;;19.00;99.90;;;;;;5013681;28;20063;-52
2023/09/10 06:41:15;;;;;;;12.63;8.35;;;19.20;99.90;;;;;;5013874;28;20030;-55
2023/09/10 06:43:41;;;;;;;13.90;8.20;;;19.30;99.90;;;;;;5013991;28;20037;-52
2023/09/10 06:46:13;;;;;;;14.10;8.77;;;19.40;99.90;;;;;;5014944;28;20029;-56
2023/09/10 06:48:38;;;;;;;13.68;8.43;;;19.50;99.90;;;;;;5032083;28;20117;-52
2023/09/10 06:51:04;;;;;;;14.15;9.02;;;19.60;99.90;;;;;;5032446;28;20029;-52
2023/09/10 06:53:30;;;;;;;12.45;8.30;;;19.70;99.90;;;;;;5032451;28;20032;-55
2023/09/10 06:55:56;;;;;;;13.02;7.95;;;19.80;99.90;;;;;;5032730;28;20560;-56
2023/09/10 06:58:22;;;;;;;14.23;9.45;;;19.90;99.90;;;;;;5030769;28;20033;-55
2023/09/10 07:00:48;;;;;;;12.80;8.95;;;20.00;99.90;;;;;;5031056;28;20113;-56
2023/09/10 07:03:14;;;;;;;11.82;8.05;;;20.20;99.90;;;;;;5031182;28;20136;-55
2023/09/10 07:05:40;;;;;;;11.95;8.70;;;20.30;99.90;;;;;;5031056;28;20044;-56
2023/09/10 07:08:08;;;;;;;11.27;7.82;;;20.40;99.90;;;;;;4996873;28;20036;-57
2023/09/10 07:10:35;;;;;;;17.67;9.63;;;20.60;99.90;;;;;;5013195;28;20033;-57
2023/09/10 07:13:07;;;;;;;13.02;8.52;;;20.70;99.90;;;;;;5031001;28;20037;-53
2023/09/10 07:15:34;;;;;;;15.65;8.15;;;20.90;99.90;;;;;;5030789;28;20025;-56
2023/09/10 07:18:00;;;;;;;11.63;7.95;;;21.10;99.90;;;;;;5030403;28;20036;-55
2023/09/10 07:20:26;;;;;;;13.25;7.47;;;21.40;99.90;;;;;;5030489;28;20052;-55
2023/09/10 07:22:51;;;;;;;11.10;7.45;;;21.70;99.90;;;;;;5030634;28;20379;-56
2023/09/10 07:25:17;;;;;;;13.90;7.40;;;22.00;99.90;;;;;;5030559;28;20352;-57
2023/09/10 07:27:42;;;;;;;12.52;7.60;;;22.00;99.90;;;;;;5029749;28;20253;-55
2023/09/10 07:30:08;;;;;;;13.10;7.68;;;22.20;99.90;;;;;;5030194;28;20039;-53
2023/09/10 07:32:34;;;;;;;15.07;7.10;;;22.20;99.90;;;;;;5030432;28;20030;-55
2023/09/10 07:35:00;;;;;;;11.68;6.80;;;22.40;99.90;;;;;;5030604;28;20504;-54
2023/09/10 07:37:25;;;;;;;12.95;7.85;;;22.40;99.90;;;;;;4996221;28;20075;-57
2023/09/10 07:39:51;;;;;;;10.63;7.53;;;22.50;99.90;;;;;;5030175;28;20071;-57
2023/09/10 07:42:17;;;;;;;9.57;6.10;;;22.50;99.90;;;;;;5030933;28;20028;-55
2023/09/10 07:44:42;;;;;;;13.48;7.65;;;22.50;99.90;;;;;;5030229;28;20033;-57
2023/09/10 07:47:08;;;;;;;13.27;7.57;;;22.70;99.90;;;;;;5030116;28;20038;-56
2023/09/10 07:49:34;;;;;;;13.18;6.78;;;22.80;99.90;;;;;;5012037;28;20025;-55
2023/09/10 07:52:03;;;;;;;9.77;6.45;;;22.90;99.90;;;;;;5030549;28;20037;-57
2023/09/10 07:54:29;;;;;;;12.90;6.57;;;22.90;99.90;;;;;;5030352;28;20057;-58
2023/09/10 07:56:55;;;;;;;13.85;8.98;;;23.10;99.90;;;;;;5030348;28;20497;-57
2023/09/10 07:59:20;;;;;;;11.73;6.43;;;23.30;99.90;;;;;;5030252;28;20421;-57
2023/09/10 08:01:46;;;;;;;12.13;6.68;;;23.40;99.90;;;;;;5030260;28;20132;-55
2023/09/10 08:04:12;;;;;;;11.27;6.72;;;23.40;99.90;;;;;;5030263;28;20030;-57
2023/09/10 08:06:37;;;;;;;10.60;6.10;;;23.50;99.90;;;;;;5030207;28;20036;-56
2023/09/10 08:09:03;;;;;;;9.00;5.80;;;23.60;99.90;;;;;;5029799;28;20244;-54
2023/09/10 08:11:29;;;;;;;10.25;6.40;;;23.60;99.90;;;;;;5030141;28;20390;-57
2023/09/10 08:13:54;;;;;;;8.70;5.80;;;23.70;99.90;;;;;;5029767;28;20029;-57
2023/09/10 08:16:20;;;;;;;10.10;6.30;;;23.80;99.90;;;;;;5030106;28;20048;-55
2023/09/10 08:18:46;;;;;;;10.07;5.18;;;23.80;99.90;;;;;;5029733;28;20034;-52
2023/09/10 08:21:12;;;;;;;10.40;5.82;;;24.00;99.90;;;;;;5030166;28;20025;-54
2023/09/10 08:23:37;;;;;;;11.50;6.20;;;24.10;99.90;;;;;;5047609;22;20049;-52
2023/09/10 08:26:04;;;;;;;8.20;5.60;;;24.20;99.90;;;;;;5035765;28;20115;-52
2023/09/10 08:28:30;;;;;;;11.73;5.65;;;24.30;99.90;;;;;;5033419;28;20033;-52
2023/09/10 08:30:56;;;;;;;9.82;5.90;;;24.40;99.90;;;;;;5035080;28;20021;-56
2023/09/10 08:33:24;;;;;;;11.00;5.43;;;24.40;99.90;;;;;;5035847;28;20503;-54
2023/09/10 08:35:51;;;;;;;8.68;5.68;;;24.40;99.90;;;;;;5036563;28;20400;-55
2023/09/10 08:38:17;;;;;;;11.75;5.70;;;24.50;99.90;;;;;;5035764;28;20083;-55
2023/09/10 08:41:21;;;;;;;12.35;5.82;;;24.50;99.90;;;;;;5021244;28;20030;-53
2023/09/10 08:43:56;;;;;;;8.23;5.93;;;24.70;99.90;;;;;;5010671;28;20521;-55
2023/09/10 08:46:30;;;;;;;9.00;5.80;;;24.80;99.90;;;;;;5039013;28;20041;-54
2023/09/10 08:49:00;;;;;;;8.35;5.65;;;24.80;99.90;;;;;;5038785;28;20083;-56
2023/09/10 08:51:27;;;;;;;10.35;5.82;;;24.90;99.90;;;;;;5039212;28;20032;-55
2023/09/10 08:53:57;;;;;;;11.10;6.50;;;24.90;99.90;;;;;;5021049;28;20501;-56
2023/09/10 08:56:23;;;;;;;9.77;5.75;;;25.20;99.90;;;;;;5038689;28;20033;-56
2023/09/10 08:58:50;;;;;;;8.82;5.20;;;25.40;99.90;;;;;;5037581;28;20104;-55
2023/09/10 09:01:18;;;;;;;9.57;6.30;;;25.40;99.90;;;;;;5038764;28;20397;-56
2023/09/10 09:03:46;;;;;;;13.82;6.50;;;25.60;99.90;;;;;;5038358;28;20029;-55
2023/09/10 09:06:12;;;;;;;12.13;6.38;;;25.80;99.90;;;;;;5038762;28;20037;-55
2023/09/10 09:08:40;;;;;;;10.27;6.28;;;25.90;99.90;;;;;;5038342;28;20026;-54
2023/09/10 09:11:08;;;;;;;10.32;6.03;;;26.00;99.90;;;;;;5037535;28;20029;-56
2023/09/10 09:13:40;;;;;;;8.05;5.57;;;26.10;99.90;;;;;;5038124;28;20100;-54
2023/09/10 09:16:06;;;;;;;11.48;5.95;;;26.30;99.90;;;;;;5019884;28;20478;-55
2023/09/10 09:18:35;;;;;;;9.15;6.30;;;26.30;99.90;;;;;;5036832;28;20033;-55
2023/09/10 09:21:17;;;;;;;9.95;5.63;;;26.40;99.90;;;;;;5038232;28;20497;-55
2023/09/10 09:23:53;;;;;;;9.68;6.25;;;26.40;99.90;;;;;;5037870;28;20041;-55
2023/09/10 09:26:21;;;;;;;10.50;6.40;;;26.50;99.90;;;;;;5037438;28;20037;-55
2023/09/10 09:28:47;;;;;;;11.35;5.40;;;26.70;99.90;;;;;;5037201;28;20092;-56
2023/09/10 09:31:13;;;;;;;9.27;5.55;;;26.70;99.90;;;;;;5020274;28;20039;-55
2023/09/10 09:33:39;;;;;;;11.13;6.22;;;26.70;99.90;;;;;;5019640;28;20068;-55
2023/09/10 09:36:07;;;;;;;8.70;4.85;;;26.90;99.90;;;;;;5037061;28;20063;-53
2023/09/10 09:38:32;;;;;;;10.05;5.18;;;27.00;99.90;;;;;;5036818;28;20411;-54
2023/09/10 09:41:02;;;;;;;8.02;5.25;;;27.10;99.90;;;;;;5038049;28;20029;-56
2023/09/10 09:43:28;;;;;;;11.15;5.80;;;27.20;99.90;;;;;;5037914;28;20041;-55
2023/09/10 09:45:54;;;;;;;9.88;5.65;;;27.10;99.90;;;;;;5037364;28;20026;-56
2023/09/10 09:48:19;;;;;;;10.02;4.47;;;27.30;99.90;;;;;;5037384;28;20112;-54
2023/09/10 09:50:48;;;;;;;9.55;5.40;;;27.30;99.90;;;;;;5036529;28;20064;-55
2023/09/10 09:53:14;;;;;;;;;;;27.60;99.90;;;;;;5020176;28;20033;-53
2023/09/10 09:55:40;;;;;;;11.07;5.35;;;27.80;99.90;;;;;;5038366;28;19909;-52
2023/09/10 09:58:06;;;;;;;12.00;5.15;;;28.20;99.90;;;;;;5036912;28;20544;-55
2023/09/10 10:00:37;;;;;;;12.30;5.55;;;28.20;99.90;;;;;;5037574;28;20103;-52
2023/09/10 10:03:03;;;;;;;11.20;5.30;;;28.20;99.90;;;;;;5019958;28;20029;-52
2023/09/10 10:05:29;;;;;;;9.40;5.32;;;28.30;99.90;;;;;;5037367;28;20029;-54
2023/09/10 10:07:55;;;;;;;8.98;5.38;;;28.50;99.90;;;;;;5037381;28;20022;-54
2023/09/10 10:10:21;;;;;;;8.82;5.07;;;28.50;99.90;;;;;;5036752;28;20525;-53
2023/09/10 10:12:47;;;;;;;7.07;5.32;;;28.50;99.90;;;;;;5036980;28;20466;-52
2023/09/10 10:15:14;;;;;;;10.50;5.63;;;28.70;99.90;;;;;;5019289;28;20029;-54
2023/09/10 10:17:44;;;;;;;6.95;5.00;;;29.00;99.90;;;;;;5036906;28;20026;-52
2023/09/10 10:20:13;;;;;;;9.02;5.15;;;29.40;99.90;;;;;;5037130;28;20037;-53
2023/09/10 10:22:39;;;;;;;7.25;4.82;;;29.70;99.90;;;;;;5037340;28;20059;-53
2023/09/10 10:25:07;;;;;;;7.95;4.97;;;30.00;99.90;;;;;;5036425;28;20124;-54
2023/09/10 10:27:35;;;;;;;9.80;5.80;;;30.10;99.90;;;;;;5036663;28;20032;-55
2023/09/10 10:30:03;;;;;;;9.57;4.88;;;30.30;99.90;;;;;;5036679;28;20029;-51
2023/09/10 10:32:34;;;;;;;14.32;7.22;;;30.30;99.90;;;;;;5036535;28;20432;-53
2023/09/10 10:35:05;;;;;;;10.23;5.47;;;30.60;99.90;;;;;;5037023;28;20108;-54
2023/09/10 10:38:01;;;;;;;7.88;4.35;;;30.90;99.70;;;;;;5036291;28;20125;-53
2023/09/10 10:40:28;;;;;;;8.80;5.22;;;31.40;99.60;;;;;;5031709;28;20047;-54
2023/09/10 10:43:29;;;;;;;10.85;4.78;;;31.60;99.90;;;;;;5035915;28;20025;-54
2023/09/10 10:45:57;;;;;;;12.80;5.13;;;31.70;98.50;;;;;;4974593;28;20054;-55
2023/09/10 10:48:26;;;;;;;7.38;4.53;;;31.50;98.90;;;;;;5024089;28;20048;-51
2023/09/10 10:50:53;;;;;;;9.35;4.43;;;31.60;98.50;;;;;;5035913;28;20037;-52
2023/09/10 10:53:24;;;;;;;9.82;4.60;;;31.70;98.50;;;;;;5036262;28;20026;-51
2023/09/10 10:55:52;;;;;;;9.52;5.22;;;31.70;97.80;;;;;;5036060;28;20056;-54
2023/09/10 10:58:20;;;;;;;6.68;4.50;;;31.60;98.10;;;;;;5035510;28;20041;-52
2023/09/10 11:00:50;;;;;;;9.65;4.50;;;31.30;97.80;;;;;;5035473;28;20021;-53
2023/09/10 11:03:16;;;;;;;7.32;4.40;;;31.10;97.80;;;;;;5034885;28;20033;-54
2023/09/10 11:05:54;;;;;;;9.18;5.30;;;31.00;98.40;;;;;;5035705;28;20034;-52
2023/09/10 11:08:30;;;;;;;7.53;4.25;;;31.00;98.20;;;;;;5035187;28;20030;-53
2023/09/10 11:10:56;;;;;;;6.97;4.10;;;31.00;97.50;;;;;;5035285;28;20479;-52
2023/09/10 11:13:22;;;;;;;8.15;4.50;;;30.90;97.50;;;;;;5035294;28;20405;-54
2023/09/10 11:16:06;;;;;;;8.27;5.13;;;30.80;97.90;;;;;;5035922;28;20069;-52
2023/09/10 11:18:34;;;;;;;9.10;5.28;;;30.70;98.50;;;;;;5035840;28;20111;-52
2023/09/10 11:21:05;;;;;;;7.80;4.30;;;30.70;98.80;;;;;;5035482;28;20089;-50
2023/09/10 11:23:33;;;;;;;8.75;4.03;;;30.70;97.80;;;;;;5035306;28;20073;-51
2023/09/10 11:26:13;;;;;;;6.80;4.03;;;30.60;97.10;;;;;;5035959;28;20116;-52
2023/09/10 11:28:43;;;;;;;5.88;3.90;;;30.50;97.90;;;;;;5033371;28;20033;-52
2023/09/10 11:31:45;;;;;;;9.60;4.00;;;30.50;97.30;;;;;;5035149;28;20093;-51
2023/09/10 11:34:23;;;;;;;10.45;4.03;;;30.60;97.60;;;;;;5034854;28;20038;-54
2023/09/10 11:36:54;;;;;;;9.85;4.07;;;30.60;97.20;;;;;;5033779;28;20040;-51
2023/09/10 11:39:21;;;;;;;10.57;5.47;;;30.60;97.10;;;;;;5034414;28;20026;-52
2023/09/10 11:41:49;;;;;;;7.20;3.97;;;30.70;97.70;;;;;;5017385;28;20045;-52
2023/09/10 11:44:15;;;;;;;;;;;30.60;97.30;;;;;;5035301;28;20082;-50
2023/09/10 11:46:41;;;;;;;8.23;3.92;;;30.70;97.30;;;;;;5035199;28;20482;-54
2023/09/10 11:49:07;;;;;;;7.07;4.05;;;30.70;96.40;;;;;;5032895;28;20071;-55
2023/09/10 11:51:50;;;;;;;8.60;3.97;;;30.70;97.00;;;;;;5016910;28;20093;-55
2023/09/10 11:54:17;;;;;;;9.68;4.45;;;30.60;97.00;;;;;;5019953;28;20053;-51
2023/09/10 11:56:47;;;;;;;7.28;3.63;;;30.60;96.80;;;;;;5037965;28;20030;-55
2023/09/10 11:59:17;;;;;;;7.32;4.15;;;30.60;96.90;;;;;;5034878;28;20038;-56
2023/09/10 12:01:43;;;;;;;6.68;4.25;;;30.70;96.60;;;;;;5035310;28;20076;-55
2023/09/10 12:04:08;;;;;;;9.60;5.43;;;30.70;96.70;;;;;;5035746;28;20029;-51
2023/09/10 12:06:34;;;;;;;10.07;5.22;;;30.70;97.00;;;;;;5035044;28;20072;-56
2023/09/10 12:08:59;;;;;;;10.77;5.30;;;30.90;96.50;;;;;;5035109;28;20112;-50
2023/09/10 12:11:28;;;;;;;7.40;3.95;;;31.00;96.60;;;;;;5035669;28;20030;-52
2023/09/10 12:13:54;;;;;;;;;;;31.00;96.20;;;;;;5037218;28;20069;-54
2023/09/10 12:16:20;;;;;;;6.78;4.20;;;30.90;96.80;;;;;;5039194;28;20385;-53
2023/09/10 12:18:46;;;;;;;6.85;4.40;;;31.10;95.90;;;;;;5039021;28;20319;-55
2023/09/10 12:21:15;;;;;;;7.38;4.13;;;31.20;96.00;;;;;;5038930;28;20048;-54
2023/09/10 12:23:43;;;;;;;8.15;5.00;;;31.30;95.90;;;;;;5039006;28;20443;-52
2023/09/10 12:26:11;;;;;;;7.70;3.90;;;31.30;95.20;;;;;;5039221;28;20056;-54
2023/09/10 12:28:37;;;;;;;8.82;4.95;;;31.20;95.60;;;;;;5038123;28;20033;-54
2023/09/10 12:31:04;;;;;;;6.63;4.60;;;31.10;96.30;;;;;;5038832;28;20032;-54
2023/09/10 12:33:30;;;;;;;5.95;3.90;;;31.00;96.00;;;;;;5037568;28;20036;-54
2023/09/10 12:35:56;;;;;;;10.25;5.22;;;31.10;95.90;;;;;;5021049;28;20037;-55
2023/09/10 12:38:22;;;;;;;5.28;3.65;;;31.10;96.60;;;;;;5038679;28;20044;-56
2023/09/10 12:40:50;;;;;;;7.30;4.10;;;31.20;95.30;;;;;;5038270;28;20072;-54